Time;durP1;ratioP1;P1;durP2;ratioP2;P2;SDS_P1;SDS_P2;PMS_P1;PMS_P2;Temp;Humidity;BMP_temperature;BMP_pressure;BME280_temperature;BME280_humidity;BME280_pressure;Samples;Min_cycle;Max_cycle;Signal;HPM_P1;HPM_P2
2023/06/19 00:00:39;;;;;;;1.13;0.82;;;;;;;;;;5053627;28;20109;-90
2023/06/19 00:03:05;;;;;;;1.05;0.93;;;;;;;;;;5038184;28;20106;-87
2023/06/19 00:05:30;;;;;;;2.10;1.20;;;;;;;;;;5037320;28;20472;-87
2023/06/19 00:07:56;;;;;;;1.17;0.73;;;;;;;;;;5036915;28;20035;-88
2023/06/19 00:10:31;;;;;;;2.60;1.35;;;;;;;;;;5052137;28;20022;-93
2023/06/19 00:12:56;;;;;;;1.85;1.30;;;;;;;;;;5034975;28;20094;-91
2023/06/19 00:15:22;;;;;;;0.68;0.68;;;;;;;;;;5054395;28;20103;-88
2023/06/19 00:17:48;;;;;;;1.25;1.10;;;;;;;;;;5034141;28;20021;-90
2023/06/19 00:20:13;;;;;;;0.93;0.90;;;;;;;;;;5036005;28;20028;-87
2023/06/19 00:22:40;;;;;;;1.60;1.38;;;;;;;;;;5052760;28;20024;-91
2023/06/19 00:25:06;;;;;;;0.98;0.85;;;;;;;;;;5037481;28;20021;-87
2023/06/19 00:27:32;;;;;;;1.50;1.10;;;;;;;;;;5055445;28;20105;-88
2023/06/19 00:30:01;;;;;;;2.17;1.77;;;;;;;;;;5055239;28;20052;-86
2023/06/19 00:32:29;;;;;;;1.45;1.30;;;;;;;;;;5053858;28;20029;-88
2023/06/19 00:34:55;;;;;;;1.58;1.02;;;;;;;;;;5035904;28;20041;-86
2023/06/19 00:37:21;;;;;;;4.30;1.02;;;;;;;;;;5036788;28;20040;-91
2023/06/19 00:39:46;;;;;;;1.40;0.77;;;;;;;;;;5035961;28;20036;-92
2023/06/19 00:42:12;;;;;;;0.93;0.77;;;;;;;;;;5035826;28;20029;-90
2023/06/19 00:44:37;;;;;;;3.67;1.20;;;;;;;;;;5051265;28;20075;-90
2023/06/19 00:47:04;;;;;;;1.65;0.90;;;;;;;;;;5035872;28;20021;-88
2023/06/19 00:49:31;;;;;;;2.13;1.13;;;;;;;;;;5047236;28;20460;-91
2023/06/19 00:51:57;;;;;;;1.33;1.05;;;;;;;;;;5031532;28;20401;-91
2023/06/19 00:54:22;;;;;;;1.88;1.10;;;;;;;;;;5054156;28;20028;-89
2023/06/19 00:56:49;;;;;;;2.05;1.45;;;;;;;;;;5050869;28;20555;-88
2023/06/19 00:59:18;;;;;;;2.53;1.00;;;;;;;;;;5058273;28;20678;-91
2023/06/19 01:01:44;;;;;;;1.67;1.00;;;;;;;;;;5036661;28;20468;-91
2023/06/19 01:04:10;;;;;;;1.30;0.95;;;;;;;;;;5038494;28;20025;-89
2023/06/19 01:07:09;;;;;;;1.38;1.00;;;;;;;;;;5040203;28;20033;-88
2023/06/19 01:09:43;;;;;;;2.90;1.25;;;;;;;;;;5049072;28;20075;-88
2023/06/19 01:12:18;;;;;;;8.48;1.10;;;;;;;;;;5052666;28;20032;-88
2023/06/19 01:14:57;;;;;;;1.48;1.10;;;;;;;;;;5037432;28;20024;-86
2023/06/19 01:17:30;;;;;;;2.28;1.42;;;;;;;;;;5053886;28;20028;-88
2023/06/19 01:19:56;;;;;;;0.70;0.70;;;;;;;;;;5054299;28;20064;-88
2023/06/19 01:22:27;;;;;;;0.70;0.70;;;;;;;;;;5056423;28;20116;-87
2023/06/19 01:24:52;;;;;;;2.42;1.38;;;;;;;;;;5056523;28;20040;-86
2023/06/19 01:27:18;;;;;;;1.73;1.42;;;;;;;;;;5055513;28;20017;-88
2023/06/19 01:29:43;;;;;;;1.02;0.93;;;;;;;;;;5037216;28;20048;-86
2023/06/19 01:32:22;;;;;;;1.25;1.00;;;;;;;;;;5057784;28;20031;-86
2023/06/19 01:34:49;;;;;;;2.05;1.50;;;;;;;;;;5037772;28;20123;-86
2023/06/19 01:37:15;;;;;;;1.80;1.05;;;;;;;;;;5036930;28;20085;-86
2023/06/19 01:39:42;;;;;;;0.82;0.70;;;;;;;;;;5039366;28;20025;-87
2023/06/19 01:42:11;;;;;;;1.98;1.50;;;;;;;;;;5057791;28;20079;-84
2023/06/19 01:44:47;;;;;;;2.45;1.30;;;;;;;;;;5060487;28;20024;-89
2023/06/19 01:47:16;;;;;;;1.85;1.50;;;;;;;;;;5054115;28;20082;-87
2023/06/19 01:49:41;;;;;;;2.28;0.93;;;;;;;;;;5038858;28;20028;-86
2023/06/19 01:52:08;;;;;;;2.03;1.40;;;;;;;;;;5041933;28;20115;-86
2023/06/19 01:54:33;;;;;;;1.98;1.60;;;;;;;;;;5039797;28;20039;-87
2023/06/19 01:56:59;;;;;;;4.45;1.95;;;;;;;;;;5057647;28;20524;-88
2023/06/19 01:59:24;;;;;;;1.38;0.98;;;;;;;;;;5039285;28;20029;-88
2023/06/19 02:01:50;;;;;;;0.63;0.60;;;;;;;;;;5037895;28;20036;-85
2023/06/19 02:04:15;;;;;;;1.13;0.93;;;;;;;;;;5055536;28;20017;-86
2023/06/19 02:06:41;;;;;;;1.17;1.00;;;;;;;;;;5058148;28;20102;-87
2023/06/19 02:09:07;;;;;;;1.42;1.33;;;;;;;;;;5055636;28;20033;-85
2023/06/19 02:11:33;;;;;;;4.25;2.30;;;;;;;;;;5040485;28;20044;-87
2023/06/19 02:13:58;;;;;;;1.25;1.15;;;;;;;;;;5056142;28;20029;-90
2023/06/19 02:16:24;;;;;;;2.75;1.45;;;;;;;;;;5037941;28;20110;-89
2023/06/19 02:18:49;;;;;;;3.53;1.35;;;;;;;;;;5053262;28;20043;-88
2023/06/19 02:21:15;;;;;;;0.85;0.80;;;;;;;;;;5050922;28;20028;-87
2023/06/19 02:23:40;;;;;;;2.35;1.33;;;;;;;;;;5049554;28;20060;-88
2023/06/19 02:26:06;;;;;;;1.48;0.93;;;;;;;;;;5051957;28;20031;-89
2023/06/19 02:28:31;;;;;;;1.58;1.13;;;;;;;;;;5037172;28;20445;-88
2023/06/19 02:30:57;;;;;;;1.48;1.20;;;;;;;;;;5036525;28;20021;-88
2023/06/19 02:33:22;;;;;;;1.67;1.15;;;;;;;;;;5054708;28;20021;-89
2023/06/19 02:35:48;;;;;;;1.77;1.25;;;;;;;;;;5040146;28;20079;-86
2023/06/19 02:38:14;;;;;;;1.00;0.88;;;;;;;;;;5050822;28;20435;-87
2023/06/19 02:40:40;;;;;;;1.40;1.20;;;;;;;;;;5055170;28;20017;-87
2023/06/19 02:43:08;;;;;;;1.92;1.13;;;;;;;;;;5055678;28;20052;-91
2023/06/19 02:45:34;;;;;;;1.60;1.45;;;;;;;;;;5057468;28;20033;-93
2023/06/19 02:47:59;;;;;;;1.33;1.23;;;;;;;;;;5038851;28;20043;-87
2023/06/19 02:50:25;;;;;;;1.90;1.13;;;;;;;;;;5059229;28;20041;-90
2023/06/19 02:52:51;;;;;;;1.80;1.02;;;;;;;;;;5053839;28;20063;-91
2023/06/19 02:55:27;;;;;;;1.15;1.00;;;;;;;;;;5057381;28;20393;-92
2023/06/19 02:57:53;;;;;;;1.52;0.90;;;;;;;;;;5035289;28;20101;-87
2023/06/19 03:00:18;;;;;;;2.03;1.33;;;;;;;;;;5053527;28;20017;-89
2023/06/19 03:02:44;;;;;;;2.75;1.52;;;;;;;;;;5035640;28;20035;-88
2023/06/19 03:05:14;;;;;;;1.40;1.17;;;;;;;;;;5036904;28;20032;-86
2023/06/19 03:07:40;;;;;;;2.38;1.50;;;;;;;;;;5031305;28;20032;-85
2023/06/19 03:10:06;;;;;;;2.13;1.42;;;;;;;;;;5056327;28;20381;-87
2023/06/19 03:12:31;;;;;;;3.20;1.42;;;;;;;;;;5037670;28;20231;-85
2023/06/19 03:14:56;;;;;;;1.70;1.10;;;;;;;;;;5056204;28;20040;-86
2023/06/19 03:17:25;;;;;;;1.05;0.90;;;;;;;;;;5039536;28;20028;-89
2023/06/19 03:19:55;;;;;;;0.77;0.65;;;;;;;;;;5036268;28;20068;-92
2023/06/19 03:22:21;;;;;;;2.15;1.75;;;;;;;;;;5038341;28;20020;-88
2023/06/19 03:24:48;;;;;;;1.77;1.10;;;;;;;;;;5053287;28;20025;-90
2023/06/19 03:27:14;;;;;;;4.70;1.38;;;;;;;;;;5035273;28;20024;-90
2023/06/19 03:29:42;;;;;;;1.90;1.38;;;;;;;;;;5039896;28;20021;-94
2023/06/19 03:32:08;;;;;;;3.03;1.85;;;;;;;;;;5037929;28;20028;-88
2023/06/19 03:34:34;;;;;;;2.38;1.60;;;;;;;;;;5040741;28;20088;-88
2023/06/19 03:36:59;;;;;;;1.38;1.20;;;;;;;;;;5053047;28;20867;-90
2023/06/19 03:39:25;;;;;;;1.67;1.13;;;;;;;;;;5055262;28;20021;-87
2023/06/19 03:41:52;;;;;;;4.22;2.10;;;;;;;;;;5054440;28;20033;-88
2023/06/19 03:44:17;;;;;;;1.73;1.23;;;;;;;;;;5034277;28;20035;-90
2023/06/19 03:46:47;;;;;;;1.75;1.25;;;;;;;;;;5039353;28;20029;-89
2023/06/19 03:49:12;;;;;;;1.63;1.30;;;;;;;;;;5027792;28;20037;-87
2023/06/19 03:51:38;;;;;;;1.23;1.13;;;;;;;;;;5053701;28;20623;-87
2023/06/19 03:54:04;;;;;;;1.65;1.38;;;;;;;;;;5047159;28;20060;-87
2023/06/19 03:56:29;;;;;;;0.93;0.80;;;;;;;;;;5050846;28;20025;-88
2023/06/19 03:58:55;;;;;;;0.90;0.90;;;;;;;;;;5040593;28;20032;-91
2023/06/19 04:01:20;;;;;;;1.80;1.08;;;;;;;;;;5057977;28;20104;-89
2023/06/19 04:03:45;;;;;;;1.15;0.80;;;;;;;;;;5033085;28;20476;-85
2023/06/19 04:06:11;;;;;;;1.63;1.13;;;;;;;;;;5047751;28;20112;-89
2023/06/19 04:08:36;;;;;;;1.30;0.90;;;;;;;;;;5054500;28;20036;-88
2023/06/19 04:11:02;;;;;;;0.98;0.88;;;;;;;;;;5054446;28;20497;-85
2023/06/19 04:13:27;;;;;;;0.70;0.52;;;;;;;;;;5032408;28;20029;-85
2023/06/19 04:15:53;;;;;;;2.30;1.08;;;;;;;;;;5052363;28;20032;-89
2023/06/19 04:18:18;;;;;;;1.25;0.70;;;;;;;;;;5036011;28;20025;-87
2023/06/19 04:20:44;;;;;;;1.90;1.60;;;;;;;;;;5054481;28;20029;-88
2023/06/19 04:23:09;;;;;;;1.60;1.30;;;;;;;;;;5052790;28;20033;-87
2023/06/19 04:25:35;;;;;;;1.25;1.00;;;;;;;;;;5053349;28;20056;-89
2023/06/19 04:28:03;;;;;;;1.90;1.08;;;;;;;;;;5051051;28;20099;-86
2023/06/19 04:30:30;;;;;;;1.38;1.13;;;;;;;;;;5055271;28;20465;-90
2023/06/19 04:32:57;;;;;;;2.42;1.05;;;;;;;;;;5056407;28;20067;-89
2023/06/19 04:35:23;;;;;;;1.25;1.05;;;;;;;;;;5054830;28;20156;-90
2023/06/19 04:37:49;;;;;;;2.42;0.90;;;;;;;;;;5048789;28;20099;-89
2023/06/19 04:40:15;;;;;;;1.38;1.08;;;;;;;;;;5034795;28;20108;-89
2023/06/19 04:42:40;;;;;;;1.35;0.75;;;;;;;;;;5051256;28;20044;-88
2023/06/19 04:45:09;;;;;;;1.98;1.40;;;;;;;;;;5050349;28;20017;-85
2023/06/19 04:47:35;;;;;;;1.25;1.00;;;;;;;;;;5033260;28;20052;-88
2023/06/19 04:50:00;;;;;;;1.65;1.00;;;;;;;;;;5032462;28;20168;-87
2023/06/19 04:52:26;;;;;;;1.75;1.38;;;;;;;;;;5056406;28;20166;-87
2023/06/19 04:54:51;;;;;;;1.15;0.85;;;;;;;;;;5056418;28;20502;-87
2023/06/19 04:57:27;;;;;;;1.23;0.70;;;;;;;;;;5048979;28;20037;-89
2023/06/19 04:59:52;;;;;;;0.95;0.73;;;;;;;;;;5035556;28;20025;-87
2023/06/19 05:02:18;;;;;;;1.55;1.40;;;;;;;;;;5055115;28;20581;-86
2023/06/19 05:04:43;;;;;;;1.35;0.90;;;;;;;;;;5056002;28;20489;-88
2023/06/19 05:07:10;;;;;;;0.80;0.63;;;;;;;;;;5052469;28;20108;-87
2023/06/19 05:09:36;;;;;;;1.63;1.30;;;;;;;;;;5032987;28;20082;-87
2023/06/19 05:12:01;;;;;;;0.93;0.80;;;;;;;;;;5036649;28;20021;-87
2023/06/19 05:14:27;;;;;;;2.00;1.25;;;;;;;;;;5027396;28;20033;-86
2023/06/19 05:16:53;;;;;;;0.68;0.68;;;;;;;;;;5054671;28;20488;-89
2023/06/19 05:19:18;;;;;;;1.67;0.95;;;;;;;;;;5055262;28;20468;-87
2023/06/19 05:21:44;;;;;;;0.55;0.52;;;;;;;;;;5033930;28;20025;-86
2023/06/19 05:24:09;;;;;;;1.52;0.88;;;;;;;;;;5035363;28;20163;-85
2023/06/19 05:26:35;;;;;;;0.95;0.68;;;;;;;;;;5039343;28;20388;-88
2023/06/19 05:29:00;;;;;;;1.00;0.85;;;;;;;;;;5054792;28;20032;-90
2023/06/19 05:31:26;;;;;;;0.88;0.60;;;;;;;;;;5036408;28;20031;-86
2023/06/19 05:33:51;;;;;;;1.33;0.85;;;;;;;;;;5049862;28;20607;-87
2023/06/19 05:36:16;;;;;;;0.75;0.70;;;;;;;;;;5050396;28;20040;-87
2023/06/19 05:38:42;;;;;;;2.03;1.20;;;;;;;;;;5035839;28;20078;-85
2023/06/19 05:41:08;;;;;;;2.47;1.10;;;;;;;;;;5051927;28;20096;-86
2023/06/19 05:43:34;;;;;;;1.10;0.80;;;;;;;;;;5037906;28;20495;-86
2023/06/19 05:45:59;;;;;;;0.85;0.80;;;;;;;;;;5054488;28;20028;-88
2023/06/19 05:48:25;;;;;;;0.52;0.47;;;;;;;;;;5054374;28;20120;-84
2023/06/19 05:50:51;;;;;;;0.40;0.40;;;;;;;;;;5049181;28;20636;-85
2023/06/19 05:53:17;;;;;;;1.10;0.68;;;;;;;;;;5036560;28;20072;-84
2023/06/19 05:55:42;;;;;;;1.38;0.90;;;;;;;;;;5029266;28;20025;-84
2023/06/19 05:58:08;;;;;;;0.68;0.68;;;;;;;;;;5053480;28;20503;-87
2023/06/19 06:00:34;;;;;;;1.42;1.20;;;;;;;;;;5035175;28;20053;-88
2023/06/19 06:02:59;;;;;;;0.93;0.85;;;;;;;;;;5038826;28;20100;-88
2023/06/19 06:05:26;;;;;;;1.23;1.00;;;;;;;;;;5054496;28;20025;-85
2023/06/19 06:07:52;;;;;;;1.55;0.98;;;;;;;;;;5033611;28;20039;-88
2023/06/19 06:10:20;;;;;;;1.25;1.00;;;;;;;;;;5036592;28;20040;-88
2023/06/19 06:12:45;;;;;;;1.85;1.13;;;;;;;;;;5037342;28;20636;-88
2023/06/19 06:15:11;;;;;;;1.00;0.68;;;;;;;;;;5040245;28;20032;-90
2023/06/19 06:17:36;;;;;;;1.33;1.23;;;;;;;;;;5035000;28;20021;-89
2023/06/19 06:20:06;;;;;;;0.95;0.75;;;;;;;;;;5050630;28;20025;-86
2023/06/19 06:22:31;;;;;;;0.90;0.90;;;;;;;;;;5033676;28;20029;-89
2023/06/19 06:24:57;;;;;;;1.50;0.85;;;;;;;;;;5053248;28;20067;-86
2023/06/19 06:27:22;;;;;;;1.85;0.88;;;;;;;;;;5051614;28;20074;-87
2023/06/19 06:29:48;;;;;;;0.50;0.50;;;;;;;;;;5049118;28;20017;-91
2023/06/19 06:32:13;;;;;;;0.55;0.55;;;;;;;;;;5050771;28;20024;-88
2023/06/19 06:34:39;;;;;;;0.70;0.43;;;;;;;;;;5054668;28;20067;-89
2023/06/19 06:37:04;;;;;;;0.98;0.65;;;;;;;;;;5054506;28;20536;-87
2023/06/19 06:39:30;;;;;;;0.50;0.38;;;;;;;;;;5034952;28;20044;-90
2023/06/19 06:41:55;;;;;;;0.65;0.65;;;;;;;;;;5053451;28;20033;-85
2023/06/19 06:44:22;;;;;;;0.77;0.50;;;;;;;;;;5029926;28;20033;-85
2023/06/19 06:46:47;;;;;;;1.45;0.95;;;;;;;;;;5053131;28;20107;-87
2023/06/19 06:49:13;;;;;;;1.85;1.48;;;;;;;;;;5051191;28;20529;-88
2023/06/19 06:51:39;;;;;;;1.88;1.02;;;;;;;;;;5036609;28;20051;-87
2023/06/19 06:54:04;;;;;;;2.05;1.30;;;;;;;;;;5055093;28;20032;-86
2023/06/19 06:56:30;;;;;;;1.13;0.73;;;;;;;;;;5050709;28;20472;-85
2023/06/19 06:58:55;;;;;;;0.93;0.77;;;;;;;;;;5052689;28;20037;-85
2023/06/19 07:01:20;;;;;;;1.85;1.30;;;;;;;;;;5035514;28;20679;-84
2023/06/19 07:03:46;;;;;;;1.88;1.05;;;;;;;;;;5035167;28;20492;-89
2023/06/19 07:06:11;;;;;;;2.53;1.13;;;;;;;;;;5048740;28;20405;-87
2023/06/19 07:08:38;;;;;;;0.57;0.38;;;;;;;;;;5032354;28;20048;-88
2023/06/19 07:11:03;;;;;;;2.85;1.23;;;;;;;;;;5033278;28;20025;-87
2023/06/19 07:13:29;;;;;;;1.30;1.20;;;;;;;;;;5027809;28;20044;-86
2023/06/19 07:15:54;;;;;;;0.75;0.70;;;;;;;;;;5050687;28;20405;-87
2023/06/19 07:18:20;;;;;;;1.38;0.82;;;;;;;;;;5046865;28;20029;-87
2023/06/19 07:20:45;;;;;;;1.75;0.85;;;;;;;;;;5034352;28;20025;-88
2023/06/19 07:23:11;;;;;;;0.73;0.68;;;;;;;;;;5032923;28;20036;-86
2023/06/19 07:25:36;;;;;;;0.75;0.75;;;;;;;;;;5051159;28;20460;-86
2023/06/19 07:28:04;;;;;;;1.10;0.77;;;;;;;;;;5030624;28;20417;-86
2023/06/19 07:30:30;;;;;;;1.40;1.10;;;;;;;;;;5048832;28;20037;-85
2023/06/19 07:32:55;;;;;;;1.02;0.88;;;;;;;;;;5032295;28;20029;-88
2023/06/19 07:35:21;;;;;;;1.75;1.23;;;;;;;;;;5052125;28;20159;-89
2023/06/19 07:37:46;;;;;;;0.85;0.80;;;;;;;;;;5030732;28;20422;-89
2023/06/19 07:40:12;;;;;;;1.02;0.90;;;;;;;;;;5049631;28;20017;-86
2023/06/19 07:42:37;;;;;;;2.10;1.20;;;;;;;;;;5034488;28;20481;-87
2023/06/19 07:45:03;;;;;;;2.05;1.38;;;;;;;;;;5034784;28;20119;-85
2023/06/19 07:47:29;;;;;;;0.82;0.60;;;;;;;;;;5037772;28;20373;-88
2023/06/19 07:49:54;;;;;;;0.68;0.68;;;;;;;;;;5032925;28;20029;-86
2023/06/19 07:52:20;;;;;;;1.63;1.17;;;;;;;;;;5050345;28;20090;-87
2023/06/19 07:54:51;;;;;;;1.25;1.02;;;;;;;;;;5034741;28;20464;-89
2023/06/19 07:57:17;;;;;;;1.00;0.90;;;;;;;;;;5030740;28;20021;-91
2023/06/19 07:59:42;;;;;;;0.90;0.68;;;;;;;;;;5034460;28;20031;-87
2023/06/19 08:02:08;;;;;;;1.40;0.95;;;;;;;;;;5047296;28;20102;-90
2023/06/19 08:04:33;;;;;;;0.95;0.65;;;;;;;;;;5050783;28;20029;-89
2023/06/19 08:06:59;;;;;;;2.17;1.17;;;;;;;;;;5050319;28;20029;-88
2023/06/19 08:09:24;;;;;;;1.13;0.90;;;;;;;;;;5026781;28;20040;-88
2023/06/19 08:11:49;;;;;;;1.38;1.13;;;;;;;;;;5051913;28;20044;-86
2023/06/19 08:14:15;;;;;;;0.95;0.57;;;;;;;;;;5051292;28;20020;-86
2023/06/19 08:16:40;;;;;;;1.77;1.20;;;;;;;;;;5050714;28;20049;-87
2023/06/19 08:19:06;;;;;;;1.38;1.10;;;;;;;;;;5051184;28;20025;-88
2023/06/19 08:21:31;;;;;;;0.88;0.43;;;;;;;;;;5030198;28;20048;-91
2023/06/19 08:23:57;;;;;;;0.80;0.68;;;;;;;;;;5049466;28;20032;-89
2023/06/19 08:26:22;;;;;;;2.03;0.80;;;;;;;;;;5049385;28;20033;-88
2023/06/19 08:28:48;;;;;;;1.45;0.95;;;;;;;;;;5049136;28;20384;-87
2023/06/19 08:31:13;;;;;;;1.80;0.88;;;;;;;;;;5051813;28;20021;-89
2023/06/19 08:33:39;;;;;;;1.77;0.95;;;;;;;;;;5035258;28;20021;-88
2023/06/19 08:36:04;;;;;;;0.60;0.60;;;;;;;;;;5052765;28;20036;-88
2023/06/19 08:38:30;;;;;;;0.68;0.63;;;;;;;;;;5050544;28;20032;-87
2023/06/19 08:40:55;;;;;;;1.52;1.10;;;;;;;;;;5052528;28;20464;-89
2023/06/19 08:43:21;;;;;;;1.05;0.60;;;;;;;;;;5035041;28;20389;-88
2023/06/19 08:46:08;;;;;;;0.90;0.80;;;;;;;;;;5050965;28;20388;-92
2023/06/19 08:48:37;;;;;;;0.85;0.55;;;;;;;;;;5033403;28;20389;-85
2023/06/19 08:51:04;;;;;;;1.00;0.80;;;;;;;;;;5033875;28;20508;-87
2023/06/19 08:53:33;;;;;;;1.05;0.65;;;;;;;;;;5030295;28;20124;-87
2023/06/19 08:55:59;;;;;;;2.25;1.55;;;;;;;;;;5030793;28;20039;-85
2023/06/19 08:58:26;;;;;;;0.93;0.73;;;;;;;;;;5051479;28;20033;-87
2023/06/19 09:00:51;;;;;;;1.05;0.68;;;;;;;;;;5046784;28;20032;-87
2023/06/19 09:03:23;;;;;;;1.02;0.45;;;;;;;;;;5051652;28;20075;-87
2023/06/19 09:05:52;;;;;;;1.50;1.10;;;;;;;;;;5035666;28;20408;-89
2023/06/19 09:08:19;;;;;;;1.33;0.88;;;;;;;;;;5049675;28;20029;-88
2023/06/19 09:11:02;;;;;;;0.57;0.57;;;;;;;;;;5031280;28;20036;-88
2023/06/19 09:13:29;;;;;;;0.73;0.70;;;;;;;;;;5033915;28;20029;-88
2023/06/19 09:16:05;;;;;;;0.50;0.50;;;;;;;;;;5040311;28;20365;-88
2023/06/19 09:18:48;;;;;;;1.77;1.08;;;;;;;;;;5061128;28;20043;-86
2023/06/19 09:21:21;;;;;;;0.93;0.68;;;;;;;;;;5055037;28;20028;-88
2023/06/19 09:23:53;;;;;;;1.67;1.05;;;;;;;;;;5041033;28;20084;-88
2023/06/19 09:26:26;;;;;;;0.80;0.60;;;;;;;;;;5053568;28;20536;-90
2023/06/19 09:28:53;;;;;;;1.15;0.52;;;;;;;;;;5055014;28;20039;-89
2023/06/19 09:31:32;;;;;;;0.55;0.40;;;;;;;;;;5041483;28;20109;-90
2023/06/19 09:33:57;;;;;;;0.93;0.68;;;;;;;;;;5044246;28;20037;-88
2023/06/19 09:36:24;;;;;;;0.73;0.52;;;;;;;;;;5058414;28;20037;-88
2023/06/19 09:38:55;;;;;;;0.77;0.57;;;;;;;;;;5062754;28;20025;-92
2023/06/19 09:45:19;;;;;;;0.65;0.60;;;;;;;;;;5057396;28;20028;-88
2023/06/19 09:48:06;;;;;;;0.82;0.65;;;;;;;;;;4942955;29;20047;-89
2023/06/19 09:51:09;;;;;;;0.82;0.82;;;;;;;;;;4947132;29;20039;-92
2023/06/19 09:53:36;;;;;;;0.82;0.60;;;;;;;;;;4904586;29;20126;-90
2023/06/19 09:56:02;;;;;;;1.15;1.00;;;;;;;;;;4952426;28;21141;-89
2023/06/19 09:58:28;;;;;;;0.85;0.70;;;;;;;;;;4995524;28;20056;-87
2023/06/19 10:00:55;;;;;;;0.77;0.77;;;;;;;;;;5032445;28;20846;-88
2023/06/19 10:03:20;;;;;;;2.00;0.90;;;;;;;;;;5050930;28;20825;-89
2023/06/19 10:05:46;;;;;;;0.65;0.50;;;;;;;;;;5049881;28;20055;-92
2023/06/19 10:08:12;;;;;;;0.68;0.60;;;;;;;;;;5035858;28;20085;-87
2023/06/19 10:10:47;;;;;;;0.73;0.52;;;;;;;;;;5054000;28;20059;-88
2023/06/19 10:13:15;;;;;;;0.55;0.55;;;;;;;;;;5034295;28;20580;-87
2023/06/19 10:15:47;;;;;;;1.40;1.00;;;;;;;;;;5035345;28;20021;-90
2023/06/19 10:18:18;;;;;;;0.75;0.47;;;;;;;;;;5049953;28;20078;-88
2023/06/19 10:20:46;;;;;;;3.30;0.98;;;;;;;;;;5036419;28;20032;-87
2023/06/19 10:23:18;;;;;;;1.02;0.82;;;;;;;;;;5054021;28;20021;-88
2023/06/19 10:25:46;;;;;;;0.98;0.70;;;;;;;;;;5035858;28;20025;-89
2023/06/19 10:28:23;;;;;;;0.80;0.70;;;;;;;;;;5031270;28;20026;-87
2023/06/19 10:31:08;;;;;;;1.83;0.90;;;;;;;;;;5027794;28;20108;-88
2023/06/19 10:33:40;;;;;;;1.20;0.85;;;;;;;;;;5047821;28;20480;-87
2023/06/19 10:36:19;;;;;;;0.65;0.55;;;;;;;;;;5036932;28;20496;-88
2023/06/19 10:38:47;;;;;;;;;;;;;;;;;;5031281;28;20021;-87
2023/06/19 10:41:22;;;;;;;0.57;0.50;;;;;;;;;;5052611;28;20328;-87
2023/06/19 10:44:05;;;;;;;1.77;1.25;;;;;;;;;;5035171;28;20028;-89
2023/06/19 10:46:35;;;;;;;1.63;1.13;;;;;;;;;;5051555;28;20035;-88
2023/06/19 10:49:04;;;;;;;0.68;0.60;;;;;;;;;;5034511;28;20043;-88
2023/06/19 10:51:30;;;;;;;1.23;0.98;;;;;;;;;;5052214;28;20041;-88
2023/06/19 10:53:57;;;;;;;1.45;1.00;;;;;;;;;;5034740;28;20036;-91
2023/06/19 10:56:23;;;;;;;1.30;0.93;;;;;;;;;;5036639;28;20032;-89
2023/06/19 10:59:00;;;;;;;0.50;0.40;;;;;;;;;;5036130;28;20028;-88
2023/06/19 11:01:36;;;;;;;0.90;0.88;;;;;;;;;;5049707;28;20040;-89
2023/06/19 11:04:03;;;;;;;1.70;0.90;;;;;;;;;;5026367;28;20091;-87
2023/06/19 11:06:29;;;;;;;1.58;1.08;;;;;;;;;;5035626;28;20025;-89
2023/06/19 11:08:56;;;;;;;1.17;0.75;;;;;;;;;;5035887;28;20029;-88
2023/06/19 11:11:21;;;;;;;0.82;0.68;;;;;;;;;;5052524;28;20029;-89
2023/06/19 11:13:47;;;;;;;2.22;1.27;;;;;;;;;;5046802;28;20051;-89
2023/06/19 11:16:14;;;;;;;1.40;0.85;;;;;;;;;;5035588;28;20087;-88
2023/06/19 11:18:40;;;;;;;1.80;1.00;;;;;;;;;;5052866;28;20472;-88
2023/06/19 11:21:05;;;;;;;1.05;0.80;;;;;;;;;;5031800;28;20025;-89
2023/06/19 11:23:31;;;;;;;1.08;0.60;;;;;;;;;;5035836;28;20078;-89
2023/06/19 11:26:04;;;;;;;1.05;0.80;;;;;;;;;;5056512;28;20035;-88
2023/06/19 11:28:29;;;;;;;1.63;0.88;;;;;;;;;;5052481;28;20035;-90
2023/06/19 11:31:01;;;;;;;1.58;1.05;;;;;;;;;;5051925;28;20393;-89
2023/06/19 11:33:26;;;;;;;1.30;0.95;;;;;;;;;;5036742;28;20059;-89
2023/06/19 11:35:59;;;;;;;1.50;0.85;;;;;;;;;;5031325;28;20033;-89
2023/06/19 11:38:26;;;;;;;1.00;0.60;;;;;;;;;;5052349;28;20049;-86
2023/06/19 11:40:52;;;;;;;1.42;0.90;;;;;;;;;;5051947;28;20052;-85
2023/06/19 11:43:31;;;;;;;1.27;1.08;;;;;;;;;;5031401;28;20020;-86
2023/06/19 11:46:07;;;;;;;1.00;0.85;;;;;;;;;;5041129;28;20104;-83
2023/06/19 11:48:36;;;;;;;1.75;1.05;;;;;;;;;;5048469;28;20111;-84
2023/06/19 11:51:02;;;;;;;1.30;0.88;;;;;;;;;;5048029;28;20033;-87
2023/06/19 11:53:29;;;;;;;0.98;0.80;;;;;;;;;;5049696;28;20053;-87
2023/06/19 11:55:55;;;;;;;2.38;1.50;;;;;;;;;;5028426;28;20032;-88
2023/06/19 11:58:20;;;;;;;1.13;0.90;;;;;;;;;;5030767;28;20043;-86
2023/06/19 12:00:47;;;;;;;0.85;0.82;;;;;;;;;;5029073;28;20490;-87
2023/06/19 12:03:12;;;;;;;2.45;0.93;;;;;;;;;;5045073;28;20507;-85
2023/06/19 12:05:38;;;;;;;0.82;0.70;;;;;;;;;;5047675;28;20059;-84
2023/06/19 12:08:04;;;;;;;1.02;0.93;;;;;;;;;;5049727;28;20025;-90
2023/06/19 12:10:36;;;;;;;1.00;0.77;;;;;;;;;;5040584;28;20017;-89
2023/06/19 12:13:01;;;;;;;1.80;1.08;;;;;;;;;;5054151;28;20037;-85
2023/06/19 12:15:27;;;;;;;2.28;1.20;;;;;;;;;;5052306;28;20457;-88
2023/06/19 12:17:53;;;;;;;1.35;1.00;;;;;;;;;;5033661;28;20025;-86
2023/06/19 12:20:19;;;;;;;2.03;1.33;;;;;;;;;;5032124;28;20071;-88
2023/06/19 12:22:44;;;;;;;1.67;1.35;;;;;;;;;;5050815;28;20041;-84
2023/06/19 12:25:10;;;;;;;2.45;1.58;;;;;;;;;;5050911;28;20032;-86
2023/06/19 12:27:37;;;;;;;1.38;1.20;;;;;;;;;;5033833;28;20503;-85
2023/06/19 12:30:03;;;;;;;2.15;1.33;;;;;;;;;;5050132;28;20032;-85
2023/06/19 12:32:28;;;;;;;2.10;1.38;;;;;;;;;;5049601;28;20027;-86
2023/06/19 12:34:53;;;;;;;0.90;0.85;;;;;;;;;;5051352;28;20032;-83
2023/06/19 12:37:20;;;;;;;1.73;1.40;;;;;;;;;;5051329;28;20032;-86
2023/06/19 12:39:51;;;;;;;1.30;0.75;;;;;;;;;;5050359;28;20092;-84
2023/06/19 12:42:16;;;;;;;1.13;1.02;;;;;;;;;;5034368;28;20061;-84
2023/06/19 12:44:44;;;;;;;1.88;1.05;;;;;;;;;;5032317;28;20061;-87
2023/06/19 12:47:10;;;;;;;1.17;0.93;;;;;;;;;;5051968;28;20031;-85
2023/06/19 12:49:35;;;;;;;3.13;1.30;;;;;;;;;;5041452;28;20029;-87
2023/06/19 12:52:01;;;;;;;1.02;0.65;;;;;;;;;;5030836;28;20037;-84
2023/06/19 12:54:27;;;;;;;2.50;1.65;;;;;;;;;;5049213;28;20029;-86
2023/06/19 12:56:53;;;;;;;1.85;1.20;;;;;;;;;;5048211;28;20053;-86
2023/06/19 12:59:18;;;;;;;1.67;1.10;;;;;;;;;;5033647;28;20025;-83
2023/06/19 13:01:44;;;;;;;1.10;0.70;;;;;;;;;;5050073;28;20051;-86
2023/06/19 13:04:11;;;;;;;1.58;1.20;;;;;;;;;;5031415;28;20532;-86
2023/06/19 13:06:36;;;;;;;1.85;1.13;;;;;;;;;;5050087;28;20033;-86
2023/06/19 13:09:02;;;;;;;1.35;1.08;;;;;;;;;;5054294;28;20369;-85
2023/06/19 13:11:27;;;;;;;1.10;0.82;;;;;;;;;;5052338;28;20036;-85
2023/06/19 13:13:53;;;;;;;2.25;1.42;;;;;;;;;;5049908;28;20397;-84
2023/06/19 13:16:19;;;;;;;1.33;1.13;;;;;;;;;;5052785;28;20469;-83
2023/06/19 13:18:45;;;;;;;1.35;1.02;;;;;;;;;;5050657;28;20052;-88
2023/06/19 13:21:11;;;;;;;1.85;1.17;;;;;;;;;;5037225;28;20040;-86
2023/06/19 13:23:37;;;;;;;0.85;0.75;;;;;;;;;;5038065;28;20036;-83
2023/06/19 13:26:04;;;;;;;1.45;1.10;;;;;;;;;;5037371;28;20400;-88
2023/06/19 13:28:30;;;;;;;2.00;1.27;;;;;;;;;;5038055;28;20028;-87
2023/06/19 13:30:55;;;;;;;1.23;1.00;;;;;;;;;;5055256;28;20029;-89
2023/06/19 13:33:21;;;;;;;1.13;0.90;;;;;;;;;;5055160;28;20469;-87
2023/06/19 13:35:47;;;;;;;0.95;0.85;;;;;;;;;;5052928;28;20403;-88
2023/06/19 13:38:12;;;;;;;1.50;0.80;;;;;;;;;;5052792;28;20025;-90
2023/06/19 13:40:38;;;;;;;0.95;0.88;;;;;;;;;;5057885;28;20085;-88
2023/06/19 13:43:06;;;;;;;1.85;1.52;;;;;;;;;;5056271;28;20423;-85
2023/06/19 13:45:39;;;;;;;1.58;1.42;;;;;;;;;;5034975;28;20094;-84
2023/06/19 13:48:16;;;;;;;1.38;0.90;;;;;;;;;;5033460;28;20036;-86
2023/06/19 13:59:03;;;;;;;1.50;1.23;;;;;;;;;;4817974;29;20034;-88
2023/06/19 14:01:29;;;;;;;0.65;0.65;;;;;;;;;;4815818;29;20046;-84
2023/06/19 14:04:38;;;;;;;;;;;;;;;;;;;;;
2023/06/19 14:07:39;;;;;;;0.90;0.68;;;;;;;;;;4878902;29;20032;-89
2023/06/19 14:10:05;;;;;;;1.65;1.30;;;;;;;;;;4888715;29;20048;-84
2023/06/19 14:12:44;;;;;;;1.30;1.02;;;;;;;;;;4956064;28;20035;-87
2023/06/19 14:15:10;;;;;;;1.33;0.77;;;;;;;;;;5013228;28;20086;-83
2023/06/19 14:17:35;;;;;;;1.20;0.80;;;;;;;;;;5042099;28;20148;-87
2023/06/19 14:20:01;;;;;;;0.80;0.80;;;;;;;;;;5053665;28;20021;-86
2023/06/19 14:22:26;;;;;;;1.27;1.17;;;;;;;;;;5031808;28;20025;-87
2023/06/19 14:24:59;;;;;;;1.80;1.00;;;;;;;;;;5052516;28;20029;-86
2023/06/19 14:27:24;;;;;;;1.65;1.17;;;;;;;;;;5031532;28;20380;-83
2023/06/19 14:29:50;;;;;;;1.70;1.10;;;;;;;;;;5035786;28;20112;-88
2023/06/19 14:32:15;;;;;;;1.65;1.00;;;;;;;;;;5050972;28;20534;-84
2023/06/19 14:34:41;;;;;;;1.73;0.80;;;;;;;;;;5053426;28;20059;-85
2023/06/19 14:37:06;;;;;;;1.63;1.13;;;;;;;;;;5052018;28;20044;-83
2023/06/19 14:39:32;;;;;;;1.95;0.93;;;;;;;;;;5051083;28;20064;-87
2023/06/19 14:41:57;;;;;;;1.10;0.85;;;;;;;;;;5051495;28;20079;-87
2023/06/19 14:44:22;;;;;;;0.93;0.80;;;;;;;;;;5051063;28;20099;-85
2023/06/19 14:46:48;;;;;;;1.60;1.10;;;;;;;;;;5046219;28;20035;-85
2023/06/19 14:49:13;;;;;;;1.35;0.90;;;;;;;;;;5045926;28;20148;-84
2023/06/19 14:51:39;;;;;;;1.52;0.95;;;;;;;;;;5050264;28;20041;-85
2023/06/19 14:54:05;;;;;;;1.65;0.93;;;;;;;;;;5049214;28;20020;-85
2023/06/19 14:56:30;;;;;;;0.73;0.65;;;;;;;;;;5051312;28;20020;-85